Fritz Creek, Alaska
Current Conditions -  °F | °C
As of 10:53 PM on Saturday 25 Oct 2014 (Local Time) from PAHO Reporting Station
Clear Clear  
Wind Chill: 32°   Ceiling: Unl
Heat Index: 32°   Visibility: 10mi
Dew Point: 23°   Wind: 3mph
Humidity: 69%   Direction: 340°NNW
Pressure: 29.82"   Gusts: NA
Location:  59.7153°N, 150.773°W
Report Text: PAHO 260653Z AUTO 34003KT 10SM CLR 00/M05 A2982 RMK AO2 SLP099 T00001050 TSNO
Loading
Personal Weather Stations






























Interactive Weather Map
Tropical Storm Tracking
New forecast layout! Learn more

10-Day Weather Forecast

Advertisements
Track Severe Weather on mobile